createdAt,value
2017-08-19T00:00:27.703Z,72.54
2017-08-19T00:05:32.493Z,72.33
2017-08-19T00:10:39.295Z,71.92
2017-08-19T00:15:45.339Z,72.02
2017-08-19T00:20:47.711Z,72.21
2017-08-19T00:25:52.394Z,72.43
2017-08-19T00:30:57.239Z,72.81
2017-08-19T00:36:00.403Z,72.89
2017-08-19T00:41:08.358Z,72.36
2017-08-19T00:46:12.463Z,72.76
2017-08-19T00:51:17.005Z,72.95
2017-08-19T00:56:19.278Z,73.20
2017-08-19T01:01:21.537Z,73.26
2017-08-19T01:06:24.236Z,73.06
2017-08-19T01:11:26.590Z,73.22
2017-08-19T01:16:29.144Z,73.39
2017-08-19T01:21:31.771Z,73.07
2017-08-19T01:26:52.100Z,73.34
2017-08-19T01:31:54.193Z,73.55
2017-08-19T01:36:56.154Z,73.66
2017-08-19T01:41:58.087Z,73.65
2017-08-19T01:47:00.615Z,73.97
2017-08-19T01:52:04.271Z,73.79
2017-08-19T01:57:06.799Z,74.02
2017-08-19T02:02:09.114Z,73.90
2017-08-19T02:07:11.850Z,74.21
2017-08-19T02:12:13.775Z,74.53
2017-08-19T02:17:15.781Z,74.50
2017-08-19T02:22:17.715Z,74.34
2017-08-19T02:27:19.651Z,74.49
2017-08-19T02:32:21.713Z,74.56
2017-08-19T02:37:23.671Z,74.41
2017-08-19T02:42:25.646Z,74.11
2017-08-19T02:47:27.621Z,73.83
2017-08-19T02:52:29.672Z,73.50
2017-08-19T02:57:31.620Z,73.84
2017-08-19T03:02:34.813Z,73.68
2017-08-19T03:07:38.493Z,73.61
2017-08-19T03:12:41.041Z,73.53
2017-08-19T03:17:44.182Z,73.60
2017-08-19T03:22:53.604Z,73.32
2017-08-19T03:27:57.059Z,73.38
2017-08-19T03:32:58.996Z,73.46
2017-08-19T03:38:01.004Z,73.59
2017-08-19T03:43:02.945Z,73.80
2017-08-19T03:48:05.987Z,73.71
2017-08-19T03:53:08.305Z,73.92
2017-08-19T03:58:10.280Z,74.15
2017-08-19T04:03:12.564Z,74.20
2017-08-19T04:08:14.634Z,74.01
2017-08-19T04:13:16.658Z,73.91
2017-08-19T04:18:19.000Z,73.85
2017-08-19T04:23:20.971Z,73.74
2017-08-19T04:28:22.972Z,73.86
2017-08-19T04:33:24.965Z,73.54
2017-08-19T04:38:26.924Z,73.24
2017-08-19T04:43:28.879Z,73.25
2017-08-19T04:48:30.823Z,73.01
2017-08-19T04:53:33.056Z,72.40
2017-08-19T04:58:36.287Z,72.18
2017-08-19T05:03:38.247Z,71.68
2017-08-19T05:08:40.566Z,71.16
2017-08-19T05:13:46.909Z,71.28
2017-08-19T05:18:53.086Z,70.92
2017-08-19T05:23:55.184Z,70.28
2017-08-19T05:28:57.205Z,70.27
2017-08-19T05:33:59.563Z,69.55
2017-08-19T05:39:01.564Z,68.83
2017-08-19T05:44:03.547Z,67.93
2017-08-19T05:49:05.468Z,67.69
2017-08-19T05:54:07.424Z,67.02
2017-08-19T05:59:10.283Z,66.92
2017-08-19T06:04:12.343Z,66.92
2017-08-19T06:09:14.324Z,66.08
2017-08-19T06:14:16.251Z,65.63
2017-08-19T06:19:18.251Z,65.06
2017-08-19T06:24:20.211Z,64.42
2017-08-19T06:29:22.358Z,63.42
2017-08-19T06:34:24.307Z,63.41
2017-08-19T06:39:26.257Z,64.00
2017-08-19T06:44:28.197Z,64.30
2017-08-19T06:49:30.265Z,64.37
2017-08-19T06:54:32.220Z,63.71
2017-08-19T06:59:39.944Z,64.25
2017-08-19T07:04:42.241Z,64.33
2017-08-19T07:09:44.653Z,64.29
2017-08-19T07:14:46.656Z,63.63
2017-08-19T07:19:48.625Z,63.76
2017-08-19T07:24:50.624Z,62.59
2017-08-19T07:29:52.592Z,62.21
2017-08-19T07:34:54.547Z,61.37
2017-08-19T07:39:56.512Z,60.84
2017-08-19T07:44:58.469Z,59.73
2017-08-19T07:50:00.566Z,57.82
2017-08-19T07:55:02.527Z,58.15
2017-08-19T08:00:04.472Z,58.01
2017-08-19T08:05:06.571Z,56.72
2017-08-19T08:10:08.582Z,56.25
2017-08-19T08:15:10.560Z,56.35
2017-08-19T08:20:12.622Z,55.87
2017-08-19T08:25:14.892Z,56.56
2017-08-19T08:30:16.844Z,57.28
2017-08-19T08:35:19.160Z,54.14
2017-08-19T08:40:21.356Z,53.13
2017-08-19T08:45:23.589Z,52.23
2017-08-19T08:50:25.888Z,52.30
2017-08-19T08:55:28.107Z,53.44
2017-08-19T09:00:37.011Z,53.87
2017-08-19T09:05:39.004Z,52.82
2017-08-19T09:10:40.963Z,52.32
2017-08-19T09:15:42.935Z,52.05
2017-08-19T09:20:44.873Z,52.71
2017-08-19T09:25:46.815Z,53.40
2017-08-19T09:30:48.775Z,53.27
2017-08-19T09:35:50.733Z,52.56
2017-08-19T09:40:52.797Z,52.03
2017-08-19T09:45:58.458Z,51.37
2017-08-19T09:51:01.374Z,51.45
2017-08-19T09:56:03.552Z,52.10
2017-08-19T10:01:05.612Z,52.12
2017-08-19T10:06:11.431Z,50.62
2017-08-19T10:11:22.428Z,50.41
2017-08-19T10:16:24.611Z,49.93
2017-08-19T10:21:26.594Z,49.35
2017-08-19T10:26:28.589Z,49.59
2017-08-19T10:31:33.402Z,49.75
2017-08-19T10:36:36.213Z,49.97
2017-08-19T10:41:38.408Z,48.51
2017-08-19T10:46:40.541Z,51.17
2017-08-19T10:51:42.615Z,50.40
2017-08-19T10:56:45.739Z,50.10
2017-08-19T11:01:49.048Z,48.35
2017-08-19T11:07:06.820Z,47.42
2017-08-19T11:12:10.629Z,46.93
2017-08-19T11:17:16.672Z,47.38
2017-08-19T11:22:19.624Z,46.14
2017-08-19T11:27:22.748Z,48.33
2017-08-19T11:32:25.889Z,49.26
2017-08-19T11:37:28.842Z,48.18
2017-08-19T11:42:30.944Z,48.23
2017-08-19T11:47:33.424Z,48.56
2017-08-19T11:52:36.610Z,48.50
2017-08-19T11:57:38.645Z,45.72
2017-08-19T12:02:40.773Z,46.07
2017-08-19T12:07:42.850Z,45.98
2017-08-19T12:12:44.839Z,45.46
2017-08-19T12:17:46.932Z,45.21
2017-08-19T12:22:48.916Z,44.59
2017-08-19T12:27:55.377Z,43.52
2017-08-19T12:33:01.984Z,43.33
2017-08-19T12:38:04.225Z,43.46
2017-08-19T12:43:06.452Z,43.91
2017-08-19T12:48:08.519Z,44.88
2017-08-19T12:53:10.496Z,45.24
2017-08-19T12:58:12.446Z,52.82
2017-08-19T13:03:15.676Z,55.90
2017-08-19T13:08:18.945Z,55.06
2017-08-19T13:13:22.228Z,53.51
2017-08-19T13:18:25.419Z,51.32
2017-08-19T13:23:28.611Z,50.14
2017-08-19T13:28:31.883Z,49.02
2017-08-19T13:33:35.091Z,47.83
2017-08-19T13:38:37.761Z,46.54
2017-08-19T13:43:40.916Z,45.08
2017-08-19T13:48:44.292Z,44.96
2017-08-19T13:53:47.404Z,46.67
2017-08-19T13:58:50.562Z,45.20
2017-08-19T14:03:53.891Z,44.92
2017-08-19T14:08:58.019Z,45.28
2017-08-19T14:14:00.451Z,44.91
2017-08-19T14:19:03.691Z,45.79
2017-08-19T14:24:06.801Z,44.80
2017-08-19T14:29:10.015Z,44.33
2017-08-19T14:34:13.172Z,42.95
2017-08-19T14:39:15.198Z,42.46
2017-08-19T14:44:17.822Z,43.00
2017-08-19T14:49:21.047Z,42.46
2017-08-19T14:54:24.168Z,42.66
2017-08-19T14:59:27.387Z,42.57
2017-08-19T15:04:30.538Z,42.40
2017-08-19T15:09:33.804Z,42.44
2017-08-19T15:14:37.022Z,41.91
2017-08-19T15:19:40.219Z,43.01
2017-08-19T15:24:43.945Z,42.09
2017-08-19T15:29:47.073Z,43.76
2017-08-19T15:34:49.045Z,42.38
2017-08-19T15:39:51.466Z,43.55
2017-08-19T15:44:54.506Z,43.35
2017-08-19T15:49:57.648Z,44.32
2017-08-19T15:55:00.914Z,44.58
2017-08-19T16:00:04.215Z,45.32
2017-08-19T16:05:07.359Z,45.71
2017-08-19T16:10:10.571Z,46.67
2017-08-19T16:15:13.825Z,47.44
2017-08-19T16:20:16.979Z,48.83
2017-08-19T16:25:20.159Z,48.32
2017-08-19T16:30:23.190Z,48.91
2017-08-19T16:35:26.182Z,49.69
2017-08-19T16:40:28.638Z,50.09
2017-08-19T16:45:31.033Z,49.34
2017-08-19T16:50:33.943Z,49.32
2017-08-19T16:55:35.926Z,48.29
2017-08-19T17:00:38.713Z,47.47
2017-08-19T17:05:41.843Z,47.09
2017-08-19T17:10:44.962Z,47.90
2017-08-19T17:15:48.117Z,49.34
2017-08-19T17:20:51.407Z,50.00
2017-08-19T17:25:54.611Z,51.40
2017-08-19T17:30:57.948Z,51.49
2017-08-19T17:36:01.228Z,51.45
2017-08-19T17:41:04.551Z,51.96
2017-08-19T17:46:07.690Z,52.73
2017-08-19T17:51:10.810Z,52.67
2017-08-19T17:56:14.077Z,53.34
2017-08-19T18:01:17.309Z,53.21
2017-08-19T18:06:20.597Z,54.10
2017-08-19T18:11:23.838Z,54.94
2017-08-19T18:16:26.991Z,54.94
2017-08-19T18:21:30.319Z,54.72
2017-08-19T18:26:33.681Z,54.69
2017-08-19T18:31:36.885Z,56.17
2017-08-19T18:36:40.105Z,57.71
2017-08-19T18:41:43.319Z,58.59
2017-08-19T18:46:46.502Z,59.11
2017-08-19T18:51:48.464Z,59.94
2017-08-19T18:56:50.590Z,61.17
2017-08-19T19:01:52.738Z,61.50
2017-08-19T19:06:54.792Z,62.24
2017-08-19T19:11:57.774Z,61.68
2017-08-19T19:16:59.921Z,61.54
2017-08-19T19:22:01.983Z,62.06
2017-08-19T19:27:04.151Z,61.95
2017-08-19T19:32:06.198Z,62.12
2017-08-19T19:37:08.184Z,62.07
2017-08-19T19:42:10.342Z,62.43
2017-08-19T19:47:12.521Z,62.40
2017-08-19T19:52:14.495Z,62.24
2017-08-19T19:57:17.644Z,62.44
2017-08-19T20:02:21.049Z,62.78
2017-08-19T20:07:24.380Z,62.95
2017-08-19T20:12:27.588Z,63.20
2017-08-19T20:17:30.817Z,63.81
2017-08-19T20:22:34.119Z,63.84
2017-08-19T20:27:37.448Z,63.65
2017-08-19T20:32:40.990Z,63.89
2017-08-19T20:37:43.092Z,64.06
2017-08-19T20:42:46.112Z,64.17
2017-08-19T20:47:48.614Z,64.64
2017-08-19T20:52:50.866Z,64.84
2017-08-19T20:57:55.412Z,65.26
2017-08-19T21:02:57.574Z,65.59
2017-08-19T21:07:59.762Z,65.43
2017-08-19T21:13:01.890Z,65.59
2017-08-19T21:18:05.608Z,65.80
2017-08-19T21:23:07.889Z,65.93
2017-08-19T21:28:09.960Z,66.18
2017-08-19T21:33:12.004Z,66.11
2017-08-19T21:38:14.207Z,66.49
2017-08-19T21:43:16.474Z,66.89
2017-08-19T21:48:18.612Z,66.87
2017-08-19T21:53:20.661Z,66.90
2017-08-19T21:58:22.704Z,66.88
2017-08-19T22:03:24.640Z,67.16
2017-08-19T22:08:26.633Z,67.05
2017-08-19T22:13:28.789Z,66.95
2017-08-19T22:18:30.748Z,67.36
2017-08-19T22:23:32.704Z,67.56
2017-08-19T22:28:34.664Z,68.22
2017-08-19T22:33:36.632Z,68.45
2017-08-19T22:38:38.584Z,68.87
2017-08-19T22:43:40.552Z,68.98
2017-08-19T22:48:42.540Z,69.41
2017-08-19T22:53:44.492Z,69.39
2017-08-19T22:58:46.538Z,69.71
2017-08-19T23:03:48.592Z,69.81
2017-08-19T23:08:50.601Z,70.30
2017-08-19T23:13:52.586Z,70.47
2017-08-19T23:18:54.560Z,70.47
2017-08-19T23:23:56.551Z,70.70
2017-08-19T23:28:58.540Z,70.84
2017-08-19T23:34:00.542Z,71.19
2017-08-19T23:39:02.637Z,71.19
2017-08-19T23:44:04.609Z,71.35
2017-08-19T23:49:06.524Z,71.54
2017-08-19T23:54:08.471Z,71.76
2017-08-19T23:59:10.475Z,71.61
